Time;durP1;ratioP1;P1;durP2;ratioP2;P2;SDS_P1;SDS_P2;PMS_P1;PMS_P2;Temp;Humidity;BMP_temperature;BMP_pressure;BME280_temperature;BME280_humidity;BME280_pressure;Samples;Min_cycle;Max_cycle;Signal;HPM_P1;HPM_P2
2023/12/31 00:01:12;;;;;;;9.77;8.40;;;;;;;4.90;100.00;152622.19;5007912;28;20462;-83
2023/12/31 00:03:38;;;;;;;9.70;8.37;;;;;;;4.90;100.00;152620.91;5004803;28;20502;-84
2023/12/31 00:06:05;;;;;;;10.83;9.20;;;;;;;4.87;100.00;152613.22;5015827;28;20452;-82
2023/12/31 00:08:31;;;;;;;11.60;9.43;;;;;;;4.83;100.00;152604.16;5010463;28;20475;-83
2023/12/31 00:11:00;;;;;;;11.67;8.97;;;;;;;4.80;100.00;152596.44;4994320;28;20448;-83
2023/12/31 00:13:26;;;;;;;12.53;9.30;;;;;;;4.82;100.00;152600.28;5013503;28;20451;-82
2023/12/31 00:15:53;;;;;;;11.93;9.37;;;;;;;4.79;100.00;152593.84;5013894;28;20509;-82
2023/12/31 00:18:21;;;;;;;12.57;9.03;;;;;;;4.76;100.00;152586.16;5012617;28;20467;-83
2023/12/31 00:20:48;;;;;;;9.77;8.40;;;;;;;4.74;100.00;152580.97;5026617;28;20437;-82
2023/12/31 00:23:14;;;;;;;9.83;8.03;;;;;;;4.72;100.00;152575.81;4998796;28;20464;-82
2023/12/31 00:25:41;;;;;;;10.13;9.07;;;;;;;4.71;100.00;152573.22;5009241;28;20488;-83
2023/12/31 00:28:07;;;;;;;9.40;8.40;;;;;;;4.68;100.00;152564.22;4992238;28;20452;-82
2023/12/31 00:30:35;;;;;;;10.90;8.77;;;;;;;4.62;100.00;152548.75;5011026;28;20443;-83
2023/12/31 00:33:02;;;;;;;9.90;8.40;;;;;;;4.56;100.00;152533.28;5005190;28;20458;-83
2023/12/31 00:35:29;;;;;;;7.80;7.03;;;;;;;4.54;100.00;152529.44;4992805;28;20487;-83
2023/12/31 00:37:56;;;;;;;10.67;7.93;;;;;;;4.54;100.00;152528.13;4994412;28;20898;-82
2023/12/31 00:40:22;;;;;;;9.90;8.20;;;;;;;4.55;100.00;152532.03;4995701;28;20514;-82
2023/12/31 00:42:49;;;;;;;11.13;8.73;;;;;;;4.53;100.00;152526.84;5006791;28;20459;-82
2023/12/31 00:45:16;;;;;;;9.73;6.70;;;;;;;4.46;100.00;152508.81;4975755;28;20479;-83
2023/12/31 00:47:43;;;;;;;8.17;6.63;;;;;;;4.42;100.00;152498.50;5001956;28;20539;-82
2023/12/31 00:50:10;;;;;;;7.17;6.27;;;;;;;4.39;100.00;152490.81;4986563;28;20475;-82
2023/12/31 00:52:38;;;;;;;9.37;7.03;;;;;;;4.36;100.00;152483.06;4991799;28;21150;-83
2023/12/31 00:55:05;;;;;;;8.87;6.33;;;;;;;4.35;100.00;152480.47;4979632;28;21050;-82
2023/12/31 00:57:32;;;;;;;7.33;5.33;;;;;;;4.29;100.00;152465.00;4991301;28;21017;-83
2023/12/31 00:59:58;;;;;;;8.40;6.40;;;;;;;4.28;100.00;152462.47;5017386;28;20479;-83
2023/12/31 01:02:25;;;;;;;8.03;6.60;;;;;;;4.27;100.00;152461.16;5007078;28;20473;-83
2023/12/31 01:04:52;;;;;;;7.03;6.30;;;;;;;4.28;100.00;152462.47;5000483;28;20825;-83
2023/12/31 01:07:18;;;;;;;8.13;6.50;;;;;;;4.29;100.00;152466.31;5010205;28;20449;-83
2023/12/31 01:09:46;;;;;;;9.60;5.77;;;;;;;4.29;100.00;152465.00;5021104;28;20448;-83
2023/12/31 01:12:13;;;;;;;8.93;5.40;;;;;;;4.29;100.00;152465.00;4999947;28;20461;-82
2023/12/31 01:14:40;;;;;;;8.70;6.00;;;;;;;4.26;100.00;152457.31;4998453;28;20460;-83
2023/12/31 01:17:07;;;;;;;8.90;6.30;;;;;;;4.25;100.00;152454.72;5038010;28;20495;-83
2023/12/31 01:19:35;;;;;;;6.40;5.60;;;;;;;4.23;100.00;152449.59;5004946;28;20440;-83
2023/12/31 01:22:02;;;;;;;6.50;5.80;;;;;;;4.23;100.00;152449.59;5012372;28;20464;-83
2023/12/31 01:24:29;;;;;;;8.63;5.63;;;;;;;4.23;100.00;152449.59;5014449;28;20444;-83
2023/12/31 01:26:57;;;;;;;8.30;6.40;;;;;;;4.22;100.00;152447.00;5033647;28;20661;-83
2023/12/31 01:29:24;;;;;;;5.80;4.90;;;;;;;4.18;100.00;152437.97;5035922;28;20686;-83
2023/12/31 01:31:51;;;;;;;6.50;4.80;;;;;;;4.16;100.00;152432.81;5018914;28;20557;-83
2023/12/31 01:34:17;;;;;;;5.90;5.20;;;;;;;4.14;100.00;152427.69;5002659;28;20455;-83
2023/12/31 01:36:44;;;;;;;8.90;6.43;;;;;;;4.13;100.00;152423.84;5023037;28;20620;-83
2023/12/31 01:39:11;;;;;;;6.27;5.00;;;;;;;4.14;100.00;152426.38;4973800;28;20456;-83
2023/12/31 01:41:38;;;;;;;7.63;5.20;;;;;;;4.11;100.00;152418.66;4996731;28;20537;-83
2023/12/31 01:44:07;;;;;;;5.10;4.60;;;;;;;4.10;100.00;152416.09;5034952;28;20467;-83
2023/12/31 01:46:35;;;;;;;5.47;4.93;;;;;;;4.07;100.00;152408.38;5020132;28;20964;-83
2023/12/31 01:49:09;;;;;;;5.67;4.87;;;;;;;4.02;100.00;152395.50;5009857;28;20454;-83
2023/12/31 01:51:36;;;;;;;6.07;4.70;;;;;;;4.00;100.00;152390.31;4976221;28;20451;-83
2023/12/31 01:54:04;;;;;;;7.10;5.47;;;;;;;4.02;100.00;152395.50;5023836;28;20819;-83
2023/12/31 01:56:33;;;;;;;7.40;5.03;;;;;;;4.00;100.00;152390.31;5018588;28;20539;-83
2023/12/31 01:59:00;;;;;;;6.03;5.00;;;;;;;4.00;100.00;152390.31;4986806;28;20453;-83
2023/12/31 02:01:29;;;;;;;4.70;4.20;;;;;;;4.00;100.00;152390.31;4994056;28;21037;-83
2023/12/31 02:03:55;;;;;;;6.03;5.00;;;;;;;4.02;100.00;152395.50;5026379;28;20468;-83
2023/12/31 02:06:22;;;;;;;4.30;3.90;;;;;;;4.02;100.00;152395.50;4977152;28;20441;-83
2023/12/31 02:08:48;;;;;;;5.97;4.87;;;;;;;4.03;100.00;152398.03;4996171;28;20450;-83
2023/12/31 02:11:17;;;;;;;5.67;3.90;;;;;;;4.04;100.00;152401.94;5000547;28;20983;-83
2023/12/31 02:13:44;;;;;;;4.70;3.77;;;;;;;4.04;100.00;152400.63;4996696;28;20481;-83
2023/12/31 02:16:14;;;;;;;4.80;3.97;;;;;;;4.05;100.00;152403.22;5000579;28;20572;-83
2023/12/31 02:18:42;;;;;;;4.30;3.80;;;;;;;4.02;100.00;152396.78;4994274;28;20430;-83
2023/12/31 02:21:09;;;;;;;6.13;4.30;;;;;;;4.00;100.00;152390.31;5004255;28;20954;-83
2023/12/31 02:23:37;;;;;;;5.20;3.80;;;;;;;3.97;100.00;152383.88;5011756;28;20531;-83
2023/12/31 02:26:08;;;;;;;6.53;4.77;;;;;;;3.94;100.00;152374.88;4990119;28;20463;-83
2023/12/31 02:28:35;;;;;;;4.67;4.10;;;;;;;3.94;100.00;152376.19;5013621;28;20443;-83
2023/12/31 02:31:01;;;;;;;7.87;4.60;;;;;;;3.93;100.00;152372.28;5003218;28;20441;-83
2023/12/31 02:33:28;;;;;;;5.60;4.17;;;;;;;3.93;100.00;152372.28;5012155;28;20444;-82
2023/12/31 02:35:55;;;;;;;4.67;4.27;;;;;;;3.96;100.00;152381.31;4996283;28;20463;-83
2023/12/31 02:38:21;;;;;;;5.70;4.37;;;;;;;3.97;100.00;152382.63;4997098;28;20461;-83
2023/12/31 02:40:48;;;;;;;4.57;4.03;;;;;;;3.96;100.00;152381.31;4993303;28;20463;-83
2023/12/31 02:43:16;;;;;;;4.87;4.37;;;;;;;3.97;100.00;152382.63;4991809;28;20452;-82
2023/12/31 02:45:43;;;;;;;5.30;4.63;;;;;;;3.99;100.00;152387.75;4986008;28;20452;-83
2023/12/31 02:48:09;;;;;;;6.87;4.47;;;;;;;4.03;100.00;152398.03;4990867;28;20460;-83
2023/12/31 02:50:36;;;;;;;5.77;4.83;;;;;;;4.07;100.00;152408.38;5005791;28;20440;-83
2023/12/31 02:53:03;;;;;;;5.77;5.17;;;;;;;4.12;100.00;152421.25;4991644;28;20448;-83
2023/12/31 02:55:29;;;;;;;7.30;5.23;;;;;;;4.16;100.00;152431.53;5010823;28;20451;-83
2023/12/31 02:57:56;;;;;;;5.70;4.80;;;;;;;4.19;100.00;152440.56;5008974;28;20480;-83
2023/12/31 03:00:24;;;;;;;4.77;3.70;;;;;;;4.24;100.00;152452.13;4988646;28;20445;-83
2023/12/31 03:02:51;;;;;;;6.30;5.20;;;;;;;4.26;100.00;152457.31;4989810;28;20464;-83
2023/12/31 03:05:18;;;;;;;6.00;4.73;;;;;;;4.29;100.00;152466.31;4998095;28;20448;-83
2023/12/31 03:07:44;;;;;;;6.20;4.60;;;;;;;4.33;100.00;152475.34;4991857;28;20449;-82
2023/12/31 03:10:11;;;;;;;4.63;4.13;;;;;;;4.36;100.00;152483.06;5015532;28;21002;-83
2023/12/31 03:12:37;;;;;;;5.47;4.53;;;;;;;4.39;100.00;152489.50;4958672;28;20465;-83
2023/12/31 03:15:05;;;;;;;4.80;4.13;;;;;;;4.38;100.00;152488.22;4978146;28;20448;-83
2023/12/31 03:17:32;;;;;;;4.57;3.93;;;;;;;4.42;100.00;152497.25;5009693;28;20483;-83
2023/12/31 03:19:59;;;;;;;5.20;4.40;;;;;;;4.44;100.00;152503.69;4993417;28;20953;-82
2023/12/31 03:22:25;;;;;;;5.80;4.63;;;;;;;4.48;100.00;152512.66;4988744;28;20471;-83
2023/12/31 03:24:52;;;;;;;5.87;4.40;;;;;;;4.50;100.00;152519.09;5002925;28;20809;-83
2023/12/31 03:27:19;;;;;;;6.10;4.53;;;;;;;4.53;100.00;152525.53;5002501;28;20453;-83
2023/12/31 03:29:45;;;;;;;5.03;4.40;;;;;;;4.53;100.00;152526.84;4999961;28;20456;-83
2023/12/31 03:32:12;;;;;;;5.67;4.90;;;;;;;4.54;100.00;152529.44;5022280;28;20471;-83
2023/12/31 03:34:39;;;;;;;5.00;4.50;;;;;;;4.55;100.00;152532.03;4995055;28;20436;-83
2023/12/31 03:37:06;;;;;;;5.67;4.50;;;;;;;4.53;100.00;152526.84;5019951;28;20570;-82
2023/12/31 03:39:32;;;;;;;6.30;4.47;;;;;;;4.54;100.00;152529.44;5005616;28;20449;-83
2023/12/31 03:41:59;;;;;;;5.20;4.37;;;;;;;4.53;100.00;152526.84;5022398;28;20460;-83
2023/12/31 03:44:25;;;;;;;6.17;4.30;;;;;;;4.53;100.00;152526.84;5009518;28;20437;-83
2023/12/31 03:46:52;;;;;;;4.50;4.10;;;;;;;4.54;100.00;152529.44;5021361;28;20447;-83
2023/12/31 03:49:19;;;;;;;4.13;3.73;;;;;;;4.56;100.00;152533.28;5004283;28;20465;-83
2023/12/31 03:51:47;;;;;;;4.00;3.60;;;;;;;4.56;100.00;152534.59;5021834;28;20513;-82
2023/12/31 03:54:14;;;;;;;4.47;3.70;;;;;;;4.58;100.00;152539.72;5005362;28;20473;-83
2023/12/31 03:56:42;;;;;;;4.80;3.87;;;;;;;4.61;100.00;152546.16;5005749;28;20471;-83
2023/12/31 03:59:08;;;;;;;5.60;4.10;;;;;;;4.65;100.00;152557.78;5000763;28;20534;-83
2023/12/31 04:01:43;;;;;;;4.10;3.70;;;;;;;4.67;100.00;152562.94;4990286;28;20449;-83
2023/12/31 04:04:10;;;;;;;4.70;3.87;;;;;;;4.67;100.00;152562.94;4996346;28;20486;-83
2023/12/31 04:06:36;;;;;;;5.47;4.07;;;;;;;4.68;100.00;152565.53;5008072;28;20461;-83
2023/12/31 04:09:04;;;;;;;4.83;4.23;;;;;;;4.67;100.00;152562.94;5023607;28;20443;-83
2023/12/31 04:11:31;;;;;;;5.07;4.13;;;;;;;4.63;100.00;152552.59;4991570;28;20538;-83
2023/12/31 04:13:57;;;;;;;5.00;3.57;;;;;;;4.60;100.00;152544.91;4981928;28;20805;-83
2023/12/31 04:16:24;;;;;;;6.40;5.00;;;;;;;4.58;100.00;152539.72;4994516;28;20472;-83
2023/12/31 04:18:51;;;;;;;5.17;3.80;;;;;;;4.57;100.00;152537.19;4989417;28;20464;-83
2023/12/31 04:21:18;;;;;;;4.70;3.97;;;;;;;4.57;100.00;152537.19;5032539;28;20447;-83
2023/12/31 04:23:44;;;;;;;4.83;3.80;;;;;;;4.55;100.00;152532.03;4986671;28;20487;-83
2023/12/31 04:26:12;;;;;;;4.83;4.30;;;;;;;4.55;100.00;152532.03;4995666;28;20445;-83
2023/12/31 04:28:39;;;;;;;4.70;4.17;;;;;;;4.53;100.00;152526.84;5042909;28;20444;-83
2023/12/31 04:31:06;;;;;;;5.87;4.80;;;;;;;4.52;100.00;152524.28;5010260;28;21006;-83
2023/12/31 04:33:33;;;;;;;4.63;4.07;;;;;;;4.48;100.00;152513.97;4991099;28;20456;-83
2023/12/31 04:36:03;;;;;;;5.23;4.57;;;;;;;4.46;100.00;152508.81;4999572;28;20459;-83
2023/12/31 04:38:32;;;;;;;5.93;4.40;;;;;;;4.45;100.00;152506.22;5028740;28;20545;-83
2023/12/31 04:40:58;;;;;;;5.13;4.30;;;;;;;4.44;100.00;152503.69;5022094;28;20469;-83
2023/12/31 04:43:26;;;;;;;5.57;4.67;;;;;;;4.44;100.00;152503.69;5010733;28;20449;-83
2023/12/31 04:45:54;;;;;;;5.00;4.50;;;;;;;4.43;100.00;152501.09;5009160;28;20961;-83
2023/12/31 04:48:20;;;;;;;5.87;4.67;;;;;;;4.41;100.00;152495.94;5012397;28;20962;-83
2023/12/31 04:50:47;;;;;;;4.50;3.87;;;;;;;4.42;100.00;152498.50;5021839;28;20447;-83
2023/12/31 04:53:15;;;;;;;4.27;3.87;;;;;;;4.41;100.00;152494.66;5037236;28;20447;-82
2023/12/31 04:55:42;;;;;;;4.23;3.83;;;;;;;4.39;100.00;152490.81;5011939;28;20447;-83
2023/12/31 04:58:08;;;;;;;4.50;4.00;;;;;;;4.39;100.00;152489.50;4999257;28;20471;-83
2023/12/31 05:00:36;;;;;;;7.10;3.90;;;;;;;4.38;100.00;152488.22;4982353;28;20465;-83
2023/12/31 05:03:03;;;;;;;6.47;4.40;;;;;;;4.39;100.00;152490.81;4991841;28;20985;-83
2023/12/31 05:05:30;;;;;;;4.90;4.30;;;;;;;4.36;100.00;152483.06;4994255;28;20458;-83
2023/12/31 05:07:56;;;;;;;4.47;3.57;;;;;;;4.36;100.00;152481.78;5039287;28;20451;-83
2023/12/31 05:10:23;;;;;;;4.77;4.30;;;;;;;4.35;100.00;152480.47;5032654;28;20587;-83
2023/12/31 05:12:49;;;;;;;5.07;4.33;;;;;;;4.32;100.00;152474.03;4992656;28;21116;-83
2023/12/31 05:15:16;;;;;;;5.07;4.23;;;;;;;4.31;100.00;152471.44;5016571;28;20530;-82
2023/12/31 05:17:44;;;;;;;5.60;4.40;;;;;;;4.31;100.00;152471.44;5028263;28;20555;-82
2023/12/31 05:20:11;;;;;;;6.00;4.17;;;;;;;4.31;100.00;152470.19;5020122;28;20451;-83
2023/12/31 05:22:38;;;;;;;4.70;4.20;;;;;;;4.30;100.00;152467.59;5001158;28;20496;-83
2023/12/31 05:25:05;;;;;;;5.30;4.33;;;;;;;4.28;100.00;152463.75;5007660;28;20522;-83
2023/12/31 05:27:32;;;;;;;6.30;4.30;;;;;;;4.27;100.00;152459.88;5011087;28;20467;-83
2023/12/31 05:29:58;;;;;;;4.90;4.20;;;;;;;4.26;100.00;152457.31;5016911;28;20527;-83
2023/12/31 05:32:25;;;;;;;5.60;4.43;;;;;;;4.23;100.00;152449.59;5010519;28;21014;-83
2023/12/31 05:34:53;;;;;;;7.17;4.90;;;;;;;4.20;100.00;152441.84;4992521;28;20447;-83
2023/12/31 05:37:20;;;;;;;5.00;4.50;;;;;;;4.20;100.00;152443.16;5017750;28;20487;-83
2023/12/31 05:39:46;;;;;;;5.50;4.83;;;;;;;4.19;100.00;152439.25;5014430;28;20475;-83
2023/12/31 05:42:13;;;;;;;5.00;4.50;;;;;;;4.18;100.00;152436.72;4995766;28;20511;-83
2023/12/31 05:44:40;;;;;;;7.07;5.57;;;;;;;4.16;100.00;152432.81;5009904;28;20440;-83
2023/12/31 05:47:07;;;;;;;5.83;4.73;;;;;;;4.12;100.00;152422.53;5037375;28;20456;-83
2023/12/31 05:49:35;;;;;;;6.17;4.70;;;;;;;4.12;100.00;152422.53;5007814;28;21008;-82
2023/12/31 05:52:03;;;;;;;6.43;5.77;;;;;;;4.13;100.00;152423.84;5018412;28;20459;-82
2023/12/31 05:54:30;;;;;;;5.27;4.77;;;;;;;4.12;100.00;152422.53;5010631;28;21045;-82
2023/12/31 05:56:56;;;;;;;6.27;4.80;;;;;;;4.11;100.00;152419.94;4989699;28;21026;-83
2023/12/31 05:59:23;;;;;;;6.70;5.23;;;;;;;4.11;100.00;152418.66;5027909;28;20982;-82
2023/12/31 06:01:49;;;;;;;4.97;4.30;;;;;;;4.10;100.00;152416.09;5006082;28;20862;-82
2023/12/31 06:04:16;;;;;;;6.80;4.90;;;;;;;4.11;100.00;152418.66;4997327;28;20905;-82
2023/12/31 06:06:42;;;;;;;6.93;4.57;;;;;;;4.10;100.00;152417.34;5002196;28;20460;-82
2023/12/31 06:09:10;;;;;;;6.10;4.43;;;;;;;4.11;100.00;152418.66;4981673;28;20458;-82
2023/12/31 06:11:38;;;;;;;6.00;4.40;;;;;;;4.08;100.00;152410.91;5000219;28;20464;-84
2023/12/31 06:14:04;;;;;;;4.80;4.00;;;;;;;4.09;100.00;152413.50;5016611;28;20443;-82
2023/12/31 06:16:31;;;;;;;4.97;4.00;;;;;;;4.10;100.00;152416.09;4981662;28;20459;-83
2023/12/31 06:18:57;;;;;;;4.20;3.80;;;;;;;4.09;100.00;152413.50;4981091;28;20978;-83
2023/12/31 06:21:24;;;;;;;4.10;3.60;;;;;;;4.09;100.00;152414.81;5000844;28;20467;-82
2023/12/31 06:23:51;;;;;;;4.73;4.23;;;;;;;4.11;100.00;152419.94;4980951;28;20453;-82
2023/12/31 06:26:19;;;;;;;4.37;3.17;;;;;;;4.14;100.00;152427.69;5014224;28;20557;-82
2023/12/31 06:28:46;;;;;;;6.10;4.10;;;;;;;4.17;100.00;152434.13;4999251;28;20457;-84
2023/12/31 06:31:12;;;;;;;5.60;3.57;;;;;;;4.20;100.00;152441.84;5017915;28;20515;-82
2023/12/31 06:33:39;;;;;;;5.13;3.80;;;;;;;4.21;100.00;152445.69;5000321;28;20452;-83
2023/12/31 06:36:06;;;;;;;5.10;3.33;;;;;;;4.23;100.00;152449.59;4983036;28;20462;-82
2023/12/31 06:38:32;;;;;;;3.30;2.80;;;;;;;4.25;100.00;152454.72;5002756;28;20490;-83
2023/12/31 06:40:59;;;;;;;3.63;3.00;;;;;;;4.28;100.00;152462.47;5015463;28;20456;-83
2023/12/31 06:43:50;;;;;;;3.03;2.50;;;;;;;4.29;100.00;152465.00;4994522;28;20543;-84
2023/12/31 06:46:16;;;;;;;3.40;2.83;;;;;;;4.32;100.00;152474.03;5004728;28;20468;-83
2023/12/31 06:48:43;;;;;;;2.83;2.60;;;;;;;4.35;100.00;152480.47;4979504;28;20449;-83
2023/12/31 06:51:10;;;;;;;3.03;2.43;;;;;;;4.38;100.00;152486.91;4979492;28;20460;-83
2023/12/31 06:53:36;;;;;;;3.23;2.80;;;;;;;4.40;100.00;152493.34;5014140;28;20460;-83
2023/12/31 06:56:04;;;;;;;4.97;2.47;;;;;;;4.42;100.00;152498.50;4999157;28;20452;-83
2023/12/31 06:58:36;;;;;;;2.90;2.60;;;;;;;4.43;100.00;152501.09;4979232;28;21064;-83
2023/12/31 07:01:04;;;;;;;3.97;2.67;;;;;;;4.44;100.00;152503.69;4999792;28;20468;-83
2023/12/31 07:03:31;;;;;;;6.73;2.40;;;;;;;4.45;100.00;152506.22;4998217;28;20477;-83
2023/12/31 07:05:57;;;;;;;2.90;2.17;;;;;;;4.46;100.00;152507.53;4999469;28;20472;-83
2023/12/31 07:08:24;;;;;;;2.60;2.00;;;;;;;4.46;100.00;152508.81;4972608;28;20468;-83
2023/12/31 07:10:51;;;;;;;2.80;2.40;;;;;;;4.47;100.00;152511.41;5002550;28;20541;-84
2023/12/31 07:13:18;;;;;;;3.03;2.23;;;;;;;4.49;100.00;152515.25;5013730;28;20457;-83
2023/12/31 07:15:46;;;;;;;3.53;2.43;;;;;;;4.52;100.00;152523.00;4998040;28;20485;-83
2023/12/31 07:18:13;;;;;;;2.80;2.27;;;;;;;4.53;100.00;152526.84;5012229;28;20477;-83
2023/12/31 07:20:39;;;;;;;2.80;2.37;;;;;;;4.54;100.00;152529.44;5012248;28;20453;-83
2023/12/31 07:23:06;;;;;;;2.30;1.90;;;;;;;4.55;100.00;152530.72;4980062;28;20457;-84
2023/12/31 07:25:33;;;;;;;2.53;2.00;;;;;;;4.56;100.00;152533.28;4980777;28;20859;-84
2023/12/31 07:28:00;;;;;;;3.40;2.40;;;;;;;4.59;100.00;152542.31;4980555;28;20818;-84
2023/12/31 07:30:26;;;;;;;2.30;1.70;;;;;;;4.62;100.00;152548.75;4977527;28;20453;-84
2023/12/31 07:32:54;;;;;;;2.73;1.90;;;;;;;4.64;100.00;152553.91;4977447;28;20449;-84
2023/12/31 07:35:20;;;;;;;2.80;2.00;;;;;;;4.65;100.00;152557.78;4996033;28;20452;-83
2023/12/31 07:37:47;;;;;;;2.70;2.40;;;;;;;4.69;100.00;152566.78;4996776;28;20489;-82
2023/12/31 07:40:14;;;;;;;2.80;1.77;;;;;;;4.69;100.00;152568.06;4989664;28;20461;-84
2023/12/31 07:42:41;;;;;;;2.70;1.70;;;;;;;4.70;100.00;152570.66;4997385;28;20806;-84
2023/12/31 07:45:09;;;;;;;3.57;2.20;;;;;;;4.71;100.00;152573.22;4998564;28;20445;-84
2023/12/31 07:47:37;;;;;;;2.37;2.10;;;;;;;4.74;100.00;152580.97;4997760;28;20495;-83
2023/12/31 07:50:06;;;;;;;2.67;2.30;;;;;;;4.76;100.00;152586.16;5002079;28;20502;-84
2023/12/31 07:52:33;;;;;;;3.13;2.23;;;;;;;4.81;100.00;152597.72;4999188;28;20461;-84
2023/12/31 07:54:59;;;;;;;2.20;2.00;;;;;;;4.81;100.00;152599.03;4980082;28;20457;-84
2023/12/31 07:57:26;;;;;;;3.80;2.40;;;;;;;4.84;100.00;152605.47;5011598;28;20804;-83
2023/12/31 08:00:16;;;;;;;;;;;;;;;;;;;;;
2023/12/31 08:02:46;;;;;;;2.30;2.10;;;;;;;4.89;100.00;152619.66;4995762;28;21000;-84
2023/12/31 08:05:15;;;;;;;2.40;1.80;;;;;;;4.90;100.00;152622.19;5011528;28;20460;-84
2023/12/31 08:07:42;;;;;;;2.37;1.87;;;;;;;4.97;100.00;152637.69;5012482;28;20495;-83
2023/12/31 08:10:11;;;;;;;2.23;1.80;;;;;;;5.02;100.00;152650.56;5011001;28;20453;-83
2023/12/31 08:12:37;;;;;;;3.17;2.13;;;;;;;5.06;100.00;152660.84;4996053;28;20459;-83
2023/12/31 08:15:05;;;;;;;3.50;2.23;;;;;;;5.09;100.00;152669.88;4979746;28;20908;-83
2023/12/31 08:17:32;;;;;;;2.83;2.23;;;;;;;5.10;100.00;152671.19;4997922;28;20465;-83
2023/12/31 08:19:58;;;;;;;2.70;2.40;;;;;;;5.12;100.00;152676.31;4995974;28;20855;-83
2023/12/31 08:22:27;;;;;;;4.07;2.70;;;;;;;5.15;100.00;152685.38;5013165;28;20465;-83
2023/12/31 08:24:53;;;;;;;3.07;2.50;;;;;;;5.19;100.00;152694.41;5003069;28;20456;-83
2023/12/31 08:27:20;;;;;;;3.43;3.13;;;;;;;5.23;100.00;152704.69;4997612;28;20559;-83
2023/12/31 08:29:46;;;;;;;4.13;3.20;;;;;;;5.24;100.00;152707.28;5015707;28;20445;-83
2023/12/31 08:32:13;;;;;;;4.20;3.13;;;;;;;5.27;100.00;152716.28;5001719;28;20485;-83
2023/12/31 08:34:40;;;;;;;2.70;2.20;;;;;;;5.30;100.00;152724.03;4986354;28;20795;-83
2023/12/31 08:37:06;;;;;;;4.40;3.13;;;;;;;5.37;100.00;152740.81;4991346;28;20864;-84
2023/12/31 08:39:37;;;;;;;2.50;2.20;;;;;;;5.40;100.00;152748.56;5006732;28;20483;-83
2023/12/31 08:42:03;;;;;;;4.33;3.43;;;;;;;5.42;100.00;152753.69;5020206;28;20456;-83
2023/12/31 08:44:30;;;;;;;3.90;3.00;;;;;;;5.43;100.00;152756.25;5004347;28;20508;-83
2023/12/31 08:46:57;;;;;;;6.60;5.10;;;;;;;5.44;100.00;152758.84;5009031;28;20488;-83
2023/12/31 08:49:24;;;;;;;4.33;3.23;;;;;;;5.45;100.00;152761.44;4994760;28;20448;-83
2023/12/31 08:51:51;;;;;;;7.33;5.70;;;;;;;5.46;100.00;152765.28;4984540;28;20457;-83
2023/12/31 08:54:17;;;;;;;6.27;3.73;;;;;;;5.46;100.00;152765.28;5026591;28;20447;-83
2023/12/31 08:56:45;;;;;;;6.00;5.10;;;;;;;5.50;100.00;152774.31;5001959;28;20444;-83
2023/12/31 08:59:12;;;;;;;5.50;4.00;;;;;;;5.47;100.00;152766.59;5002412;28;20980;-83
2023/12/31 09:01:39;;;;;;;2.83;2.50;;;;;;;5.49;100.00;152771.72;4998759;28;21072;-83
2023/12/31 09:04:05;;;;;;;3.57;2.80;;;;;;;5.47;100.00;152767.88;5000206;28;20473;-83
2023/12/31 09:06:32;;;;;;;5.60;3.30;;;;;;;5.47;100.00;152766.59;4999057;28;20468;-84
2023/12/31 09:08:58;;;;;;;5.50;4.20;;;;;;;5.48;100.00;152769.19;4998794;28;20449;-83
2023/12/31 09:11:25;;;;;;;4.33;3.10;;;;;;;5.51;100.00;152776.88;5002189;28;20463;-83
2023/12/31 09:13:53;;;;;;;3.43;2.70;;;;;;;5.54;100.00;152785.91;5012186;28;20851;-84
2023/12/31 09:16:19;;;;;;;4.43;3.00;;;;;;;5.58;100.00;152793.66;4999463;28;20460;-83
2023/12/31 09:18:46;;;;;;;4.00;3.40;;;;;;;5.62;100.00;152805.25;5003655;28;21003;-83
2023/12/31 09:21:20;;;;;;;3.73;3.37;;;;;;;5.59;100.00;152797.50;5002523;28;20471;-84
2023/12/31 09:24:06;;;;;;;3.67;3.27;;;;;;;5.62;100.00;152805.25;4987566;28;20974;-83
2023/12/31 09:26:33;;;;;;;3.23;2.60;;;;;;;5.66;100.00;152815.59;5002435;28;20515;-84
2023/12/31 09:29:01;;;;;;;4.53;2.80;;;;;;;5.66;100.00;152815.59;5002560;28;20528;-83
2023/12/31 09:31:27;;;;;;;4.23;2.73;;;;;;;5.69;100.00;152823.34;4983182;28;20457;-84
2023/12/31 09:33:54;;;;;;;3.30;3.00;;;;;;;5.74;100.00;152836.22;5003589;28;20853;-83
2023/12/31 09:36:20;;;;;;;4.40;3.87;;;;;;;5.77;100.00;152842.69;4979724;28;20840;-84
2023/12/31 09:38:47;;;;;;;8.60;5.97;;;;;;;5.80;100.00;152851.66;4998825;28;20480;-83
2023/12/31 09:41:18;;;;;;;13.00;8.63;;;;;;;5.84;100.00;152862.00;5001284;28;20907;-84
2023/12/31 09:43:45;;;;;;;6.50;5.07;;;;;;;5.87;100.00;152869.81;4999259;28;20542;-83
2023/12/31 09:46:13;;;;;;;6.27;4.27;;;;;;;5.85;100.00;152864.63;5013983;28;20535;-84
2023/12/31 09:48:40;;;;;;;5.37;3.70;;;;;;;5.86;100.00;152867.22;5014355;28;20574;-82
2023/12/31 09:51:07;;;;;;;3.73;3.27;;;;;;;5.87;100.00;152869.81;4984547;28;20452;-82
2023/12/31 09:53:34;;;;;;;6.37;4.40;;;;;;;5.87;100.00;152869.81;4979930;28;20508;-83
2023/12/31 09:56:03;;;;;;;4.80;4.27;;;;;;;5.87;100.00;152869.81;5013829;28;20575;-83
2023/12/31 09:58:30;;;;;;;4.40;3.70;;;;;;;5.87;100.00;152868.50;5014315;28;20474;-83
2023/12/31 10:00:57;;;;;;;5.00;3.60;;;;;;;5.88;100.00;152871.06;4981620;28;20473;-83
2023/12/31 10:03:26;;;;;;;4.07;3.40;;;;;;;5.95;100.00;152890.44;4981066;28;20484;-83
2023/12/31 10:05:52;;;;;;;4.43;3.90;;;;;;;6.00;100.00;152903.34;4981691;28;20958;-83
2023/12/31 10:08:19;;;;;;;4.53;3.33;;;;;;;6.05;100.00;152914.94;4997710;28;20499;-82
2023/12/31 10:10:46;;;;;;;3.90;3.20;;;;;;;6.13;100.00;152936.88;4997641;28;20516;-83
2023/12/31 10:13:15;;;;;;;4.90;4.33;;;;;;;6.23;100.00;152961.38;5013124;28;20453;-83
2023/12/31 10:15:41;;;;;;;3.87;3.40;;;;;;;6.30;100.00;152978.16;4978659;28;20833;-83
2023/12/31 10:18:08;;;;;;;4.00;3.60;;;;;;;6.41;100.00;153007.81;4997221;28;20468;-83
2023/12/31 10:20:37;;;;;;;5.20;3.53;;;;;;;6.50;100.00;153029.75;4983586;28;20449;-83
2023/12/31 10:23:04;;;;;;;10.17;3.27;;;;;;;6.55;100.00;153042.66;4996345;28;20549;-83
2023/12/31 10:25:30;;;;;;;3.23;2.93;;;;;;;6.58;100.00;153050.41;4980279;28;20457;-83
2023/12/31 10:27:57;;;;;;;3.50;3.13;;;;;;;6.59;100.00;153054.28;5001069;28;20800;-83
2023/12/31 10:30:26;;;;;;;4.07;3.67;;;;;;;6.63;100.00;153064.63;4998884;28;21377;-84
2023/12/31 10:33:08;;;;;;;4.20;3.40;;;;;;;6.67;100.00;153073.66;5015098;28;20453;-78
2023/12/31 10:35:36;;;;;;;5.03;3.73;;;;;;;6.71;100.00;153083.97;5014704;28;20454;-75
2023/12/31 10:38:04;;;;;;;4.63;4.00;;;;;;;6.72;100.00;153086.56;4998770;28;20920;-75
2023/12/31 10:40:33;;;;;;;4.03;3.50;;;;;;;6.72;100.00;153087.81;4998076;28;20527;-75
2023/12/31 10:43:00;;;;;;;5.10;4.47;;;;;;;6.72;100.00;153087.81;4998492;28;20463;-82
2023/12/31 10:45:27;;;;;;;4.27;3.53;;;;;;;6.71;100.00;153083.97;4994711;28;20449;-82
2023/12/31 10:47:56;;;;;;;7.03;4.40;;;;;;;6.69;100.00;153078.81;5016842;28;20557;-82
2023/12/31 10:50:24;;;;;;;5.97;4.67;;;;;;;6.65;100.00;153069.78;4999907;28;20489;-82
2023/12/31 10:52:53;;;;;;;6.03;4.80;;;;;;;6.67;100.00;153073.66;5002177;28;20519;-83
2023/12/31 10:55:20;;;;;;;6.17;5.40;;;;;;;6.68;100.00;153076.22;4984271;28;20460;-83
2023/12/31 10:57:48;;;;;;;5.63;5.00;;;;;;;6.72;100.00;153087.81;4983291;28;20453;-83
2023/12/31 11:00:16;;;;;;;6.07;5.13;;;;;;;6.73;100.00;153090.41;4998952;28;20481;-83
2023/12/31 11:02:43;;;;;;;5.47;4.50;;;;;;;6.74;100.00;153091.72;4983527;28;20540;-83
2023/12/31 11:05:10;;;;;;;5.60;4.10;;;;;;;6.77;100.00;153098.19;5017218;28;20477;-83
2023/12/31 11:07:37;;;;;;;5.67;4.27;;;;;;;6.81;100.00;153109.78;5012344;28;20461;-83
2023/12/31 11:10:06;;;;;;;5.47;4.70;;;;;;;6.87;100.00;153125.28;4983534;28;20449;-83
2023/12/31 11:12:33;;;;;;;6.07;5.30;;;;;;;6.94;100.00;153143.34;4998324;28;20534;-83
2023/12/31 11:15:03;;;;;;;4.43;4.03;;;;;;;7.05;100.00;153170.44;4997344;28;20481;-83
2023/12/31 11:17:50;;;;;;;5.17;4.20;;;;;;;7.13;100.00;153191.09;5001534;28;20869;-83
2023/12/31 11:20:52;;;;;;;5.70;4.50;;;;;;;7.21;100.00;153211.78;5002512;28;20465;-82
2023/12/31 11:23:25;;;;;;;5.53;4.40;;;;;;;7.24;100.00;153220.81;5002030;28;20451;-83
2023/12/31 11:25:53;;;;;;;6.80;5.33;;;;;;;7.27;100.00;153228.56;4994429;28;20468;-82
2023/12/31 11:28:20;;;;;;;4.50;3.53;;;;;;;7.29;100.00;153233.72;5008106;28;20472;-83